Time;durP1;ratioP1;P1;durP2;ratioP2;P2;SDS_P1;SDS_P2;PMS_P1;PMS_P2;Temp;Humidity;BMP_temperature;BMP_pressure;BME280_temperature;BME280_humidity;BME280_pressure;Samples;Min_cycle;Max_cycle;Signal;HPM_P1;HPM_P2
2022/08/05 00:02:21;;;;;;;2.83;2.10;;;22.70;66.90;;;21.48;54.60;100094.16;10451396;27;96748;-87
2022/08/05 00:07:25;;;;;;;3.00;1.83;;;22.60;67.00;;;21.42;54.53;100101.34;10456825;27;98312;-87
2022/08/05 00:12:48;;;;;;;3.95;2.30;;;22.60;67.20;;;21.33;54.80;100094.66;10457924;27;96656;-86
2022/08/05 00:17:58;;;;;;;5.25;2.08;;;22.60;67.20;;;21.27;54.94;100087.50;10437851;27;96831;-87
2022/08/05 00:23:04;;;;;;;2.72;2.10;;;22.50;67.30;;;21.23;55.27;100092.56;10417385;27;98397;-88
2022/08/05 00:28:14;;;;;;;2.80;2.10;;;22.40;67.50;;;21.18;55.33;100083.56;10433794;27;96488;-88
2022/08/05 00:33:32;;;;;;;4.28;2.20;;;22.40;67.80;;;21.11;55.12;100089.91;10417912;27;96634;-88
2022/08/05 00:38:55;;;;;;;3.80;2.00;;;22.30;67.90;;;21.04;55.98;100088.38;10456163;27;96538;-86
2022/08/05 00:44:01;;;;;;;3.75;2.15;;;22.20;68.30;;;20.98;55.87;100084.75;10427828;27;96712;-87
2022/08/05 00:49:04;;;;;;;3.47;2.20;;;22.20;68.50;;;20.94;56.64;100089.00;10405319;27;96724;-87
2022/08/05 00:54:11;;;;;;;3.33;2.20;;;22.10;68.80;;;20.89;56.52;100080.81;10438721;27;96719;-87
2022/08/05 00:59:14;;;;;;;3.20;2.28;;;22.10;69.00;;;20.81;57.08;100083.84;10437102;27;97292;-87
2022/08/05 01:04:17;;;;;;;2.65;2.20;;;22.10;69.30;;;20.76;57.25;100083.78;10427958;27;97829;-87
2022/08/05 01:09:28;;;;;;;4.57;2.33;;;22.00;69.50;;;20.67;57.10;100077.06;10424213;27;96777;-87
2022/08/05 01:14:39;;;;;;;3.38;2.58;;;21.90;69.60;;;20.55;57.55;100077.09;10448060;27;97797;-88
2022/08/05 01:19:59;;;;;;;3.13;2.20;;;21.80;70.00;;;20.46;58.27;100075.81;10415336;27;98360;-88
2022/08/05 01:25:19;;;;;;;3.63;2.67;;;21.70;70.40;;;20.37;58.07;100072.59;10421114;27;97396;-88
2022/08/05 01:30:27;;;;;;;4.47;2.13;;;21.60;70.80;;;20.28;58.37;100068.63;10435329;27;97392;-88
2022/08/05 01:35:41;;;;;;;2.50;2.08;;;21.40;71.00;;;20.22;58.04;100072.28;10405005;27;96550;-88
2022/08/05 01:40:58;;;;;;;4.15;2.10;;;21.40;71.00;;;20.14;58.16;100081.50;10457019;27;97217;-89
2022/08/05 01:46:02;;;;;;;3.95;2.40;;;21.40;71.00;;;20.08;58.50;100078.94;10460231;27;97248;-89
2022/08/05 01:51:20;;;;;;;2.60;2.38;;;21.30;71.20;;;20.00;58.76;100083.63;10460185;27;97615;-89
2022/08/05 01:56:31;;;;;;;2.80;2.00;;;21.30;71.40;;;19.96;58.81;100081.59;10461017;27;96630;-88
2022/08/05 02:01:59;;;;;;;2.35;1.60;;;21.20;71.40;;;19.88;58.44;100085.47;10460902;27;96697;-89
2022/08/05 02:07:02;;;;;;;2.88;1.90;;;21.10;71.10;;;19.88;58.19;100080.06;10490892;27;97320;-88
2022/08/05 02:12:22;;;;;;;2.28;1.75;;;21.10;71.10;;;19.88;57.82;100080.06;10480366;27;97536;-86
2022/08/05 02:17:44;;;;;;;3.50;1.88;;;21.10;71.00;;;19.83;58.11;100082.63;10466849;27;96589;-87
2022/08/05 02:23:10;;;;;;;4.70;2.10;;;21.00;71.10;;;19.81;57.97;100075.84;10453155;27;97084;-87
2022/08/05 02:28:18;;;;;;;2.42;1.92;;;21.00;71.00;;;19.78;57.85;100085.19;10455523;27;96645;-87
2022/08/05 02:33:46;;;;;;;2.67;1.67;;;21.00;71.20;;;19.74;58.27;100073.25;10482912;27;97495;-87
2022/08/05 02:38:53;;;;;;;4.38;2.10;;;20.90;71.30;;;19.72;58.16;100076.16;10448414;27;96688;-87
2022/08/05 02:43:58;;;;;;;3.90;1.90;;;20.90;71.20;;;19.72;57.99;100078.84;10424381;27;98378;-87
2022/08/05 02:49:15;;;;;;;5.35;3.13;;;20.90;71.20;;;19.68;58.10;100076.88;10440554;27;98262;-87
2022/08/05 02:54:21;;;;;;;3.85;2.45;;;20.90;71.50;;;19.66;58.14;100076.25;10406975;27;98523;-87
2022/08/05 02:59:43;;;;;;;2.63;2.15;;;20.90;71.60;;;19.61;58.75;100073.44;10431413;27;96699;-87
2022/08/05 03:04:55;;;;;;;2.53;2.00;;;20.80;71.80;;;19.58;58.41;100065.78;10446908;27;97449;-88
2022/08/05 03:09:58;;;;;;;2.25;1.92;;;20.80;71.70;;;19.56;58.89;100062.50;10444948;27;96519;-88
2022/08/05 03:15:03;;;;;;;3.17;1.98;;;20.80;71.90;;;19.52;58.85;100060.25;10411345;27;98507;-88
2022/08/05 03:20:09;;;;;;;2.22;2.03;;;20.80;71.90;;;19.48;58.92;100050.16;10404941;28;96765;-88
2022/08/05 03:25:17;;;;;;;4.35;2.60;;;20.70;72.10;;;19.44;59.07;100052.50;10388311;28;96723;-88
2022/08/05 03:30:42;;;;;;;3.72;2.42;;;20.70;72.50;;;19.39;59.77;100048.88;10423896;27;98399;-88
2022/08/05 03:35:46;;;;;;;5.07;2.50;;;20.70;72.70;;;19.34;60.01;100052.22;10425436;27;96937;-88
2022/08/05 03:40:51;;;;;;;7.85;2.78;;;20.60;72.80;;;19.34;59.75;100051.41;10430088;27;98219;-87
2022/08/05 03:45:54;;;;;;;7.97;2.53;;;20.60;73.00;;;19.33;60.27;100060.56;10406331;27;98505;-87
2022/08/05 03:51:19;;;;;;;4.88;2.78;;;20.60;73.40;;;19.35;60.11;100053.88;10405943;27;97127;-87
2022/08/05 03:56:45;;;;;;;2.90;2.35;;;20.60;73.20;;;19.37;59.96;100059.03;10428696;27;97154;-86
2022/08/05 04:01:50;;;;;;;3.72;2.20;;;20.60;73.30;;;19.38;60.58;100066.91;10430769;27;96999;-87
2022/08/05 04:06:54;;;;;;;5.40;2.35;;;20.60;73.40;;;19.41;60.16;100065.59;10427195;27;96720;-86
2022/08/05 04:11:58;;;;;;;3.40;2.47;;;20.70;73.60;;;19.43;60.25;100067.03;10426325;27;97455;-85
2022/08/05 04:17:02;;;;;;;4.88;2.42;;;20.70;73.80;;;19.48;60.33;100067.16;10412861;27;96786;-85
2022/08/05 04:22:07;;;;;;;3.42;2.30;;;20.70;74.00;;;19.59;60.50;100067.47;10414726;27;98179;-85
2022/08/05 04:27:14;;;;;;;4.25;2.72;;;20.80;74.00;;;19.72;60.65;100059.16;10411192;27;97112;-85
2022/08/05 04:32:17;;;;;;;8.10;4.88;;;20.90;74.10;;;19.88;60.80;100063.06;10415254;27;96717;-85
2022/08/05 04:37:35;;;;;;;6.25;3.17;;;21.10;74.10;;;20.03;60.45;100066.13;10439391;27;97699;-85
2022/08/05 04:42:58;;;;;;;3.13;2.42;;;21.20;74.10;;;20.21;60.13;100062.50;10421594;27;98409;-90
2022/08/05 04:48:11;;;;;;;4.10;2.35;;;21.40;74.00;;;20.37;60.14;100061.81;10407345;27;98341;-93
2022/08/05 04:53:20;;;;;;;2.95;2.10;;;21.50;73.80;;;20.52;59.38;100064.09;10398530;27;97332;-91
2022/08/05 04:58:23;;;;;;;4.22;2.50;;;21.70;73.30;;;20.70;58.75;100063.13;10432792;27;96635;-92
2022/08/05 05:03:27;;;;;;;4.25;2.45;;;21.90;73.50;;;20.91;58.66;100062.47;10399310;27;97669;-91
2022/08/05 05:08:43;;;;;;;6.00;2.25;;;22.00;73.20;;;21.10;57.60;100058.53;10419767;27;96976;-88
2022/08/05 05:13:51;;;;;;;3.42;2.03;;;22.20;72.10;;;21.30;57.13;100052.75;10425249;27;96724;-89
2022/08/05 05:18:57;;;;;;;6.43;2.10;;;22.50;72.00;;;21.52;56.02;100057.44;10418687;27;98115;-88
2022/08/05 05:24:20;;;;;;;2.65;2.05;;;22.60;70.50;;;21.71;55.33;100058.03;10417516;28;96770;-89
2022/08/05 05:29:23;;;;;;;3.38;2.17;;;22.80;69.50;;;21.89;54.11;100050.53;10399149;28;96500;-89
2022/08/05 05:34:46;;;;;;;5.75;1.98;;;23.00;69.00;;;22.10;54.07;100042.75;10401241;27;96547;-89
2022/08/05 05:39:49;;;;;;;2.65;2.20;;;23.20;68.80;;;22.39;53.30;100046.16;10415127;27;96538;-89
2022/08/05 05:44:51;;;;;;;3.38;1.88;;;23.40;68.20;;;23.16;52.09;100045.28;10416537;27;96801;-89
2022/08/05 05:50:01;;;;;;;3.60;2.08;;;23.70;67.90;;;23.28;50.07;100037.00;10399234;27;96534;-88
2022/08/05 05:55:10;;;;;;;4.32;1.85;;;23.90;66.40;;;23.34;49.50;100038.69;10399034;28;96456;-89
2022/08/05 06:00:20;;;;;;;4.05;2.40;;;24.20;65.70;;;23.39;49.28;100041.44;10444299;27;96543;-89
2022/08/05 06:05:33;;;;;;;4.07;1.80;;;24.30;65.10;;;23.50;49.25;100037.75;10441843;27;96599;-88
2022/08/05 06:10:36;;;;;;;3.38;2.33;;;24.50;64.70;;;23.62;48.55;100033.00;10424523;27;96424;-89
2022/08/05 06:15:54;;;;;;;2.90;1.98;;;24.70;63.90;;;23.80;48.35;100033.69;10426466;27;96627;-89
2022/08/05 06:21:17;;;;;;;7.03;1.90;;;24.80;63.50;;;24.02;47.62;100037.13;10401372;27;97056;-90
2022/08/05 06:26:20;;;;;;;3.97;1.90;;;25.10;63.00;;;24.24;47.64;100031.59;10380968;28;96554;-91
2022/08/05 06:31:26;;;;;;;3.80;2.17;;;25.30;62.80;;;24.40;45.82;100032.53;10416811;27;96641;-91
2022/08/05 06:36:35;;;;;;;2.17;1.67;;;25.50;61.50;;;24.59;44.48;100031.03;10400090;27;96616;-89
2022/08/05 06:42:01;;;;;;;4.22;1.70;;;25.70;60.40;;;24.85;45.07;100031.13;10448293;27;96577;-89
2022/08/05 06:47:06;;;;;;;5.35;2.08;;;25.90;60.10;;;25.08;42.79;100025.25;10422047;27;96586;-89
2022/08/05 06:52:28;;;;;;;4.85;1.88;;;26.20;58.50;;;25.36;42.79;100022.03;10395514;27;96591;-88
2022/08/05 06:57:40;;;;;;;4.07;1.92;;;26.50;58.00;;;25.65;41.93;100021.53;10404863;28;97807;-89
2022/08/05 07:03:03;;;;;;;3.17;1.60;;;26.70;57.50;;;25.93;41.47;100019.38;10406567;28;96466;-89
2022/08/05 07:08:11;;;;;;;2.20;1.75;;;27.00;56.90;;;26.11;40.97;100019.63;10421294;27;96475;-90
2022/08/05 07:19:01;;;;;;;4.18;1.80;;;27.50;55.80;;;26.60;39.87;100020.88;10317822;27;96685;-90
2022/08/05 07:24:06;;;;;;;10.30;1.85;;;27.70;55.10;;;26.81;39.05;100017.00;10401721;28;96625;-89
2022/08/05 07:29:14;;;;;;;7.57;2.13;;;28.00;54.80;;;27.04;37.90;100009.22;10388421;27;96586;-89
2022/08/05 07:34:17;;;;;;;5.97;1.40;;;28.20;54.00;;;27.23;37.58;100004.81;10397256;28;97315;-90
2022/08/05 07:39:30;;;;;;;7.82;1.65;;;28.40;53.50;;;27.47;36.77;100003.00;10442583;27;99066;-89
2022/08/05 07:44:52;;;;;;;3.58;1.95;;;28.60;52.80;;;27.71;36.26;100002.28;10431309;27;97409;-90
2022/08/05 07:49:57;;;;;;;5.28;1.77;;;28.80;52.10;;;27.87;36.08;99994.75;10449940;27;96838;-89
2022/08/05 07:55:01;;;;;;;3.25;1.55;;;29.00;51.80;;;28.07;35.77;100000.03;10444533;27;96493;-95
2022/08/05 08:00:07;;;;;;;3.92;1.77;;;29.20;51.50;;;28.23;35.22;100004.22;10422669;27;96565;-90
2022/08/05 08:05:14;;;;;;;4.15;1.65;;;29.40;51.30;;;28.44;35.60;99999.38;10440615;27;96823;-90
2022/08/05 08:10:19;;;;;;;4.63;1.88;;;29.50;51.30;;;28.68;35.43;100002.09;10409913;28;96534;-91
2022/08/05 08:15:22;;;;;;;5.63;2.00;;;29.80;51.40;;;28.90;35.78;99985.13;10400378;27;96652;-92
2022/08/05 08:20:45;;;;;;;2.35;1.70;;;30.00;51.20;;;29.17;35.22;99994.63;10408503;27;96928;-91
2022/08/05 08:26:06;;;;;;;3.50;1.70;;;30.30;51.10;;;29.39;34.16;99980.31;10410674;27;96590;-91
2022/08/05 08:31:09;;;;;;;2.80;1.85;;;30.60;50.50;;;29.58;34.24;99981.97;10422482;27;96587;-92
2022/08/05 08:36:19;;;;;;;4.50;1.95;;;30.70;50.30;;;29.81;33.57;99979.41;10412097;27;96776;-93
2022/08/05 08:41:42;;;;;;;3.45;1.70;;;30.90;49.80;;;30.05;33.80;99977.31;10427897;27;96684;-92
2022/08/05 08:46:55;;;;;;;5.57;1.85;;;31.10;49.70;;;30.30;33.42;99978.78;10410650;28;97648;-92
2022/08/05 08:52:18;;;;;;;2.38;1.73;;;31.40;50.10;;;30.52;32.34;99975.31;10435859;27;96738;-91
2022/08/05 08:57:22;;;;;;;2.40;1.83;;;31.60;48.80;;;30.74;31.30;99965.56;10442373;27;96508;-91
2022/08/05 09:02:44;;;;;;;2.75;1.73;;;31.80;48.20;;;30.90;31.28;99969.59;10400572;27;98082;-92
2022/08/05 09:07:51;;;;;;;3.97;1.88;;;32.00;47.70;;;31.09;29.82;99962.03;10425944;27;96725;-90
2022/08/05 09:12:59;;;;;;;2.60;2.10;;;32.20;46.80;;;31.13;29.60;99957.53;10441583;27;96474;-92
2022/08/05 09:18:08;;;;;;;4.35;1.63;;;32.30;46.00;;;31.31;30.21;99946.72;10426147;27;96468;-93
2022/08/05 09:23:19;;;;;;;2.88;2.15;;;32.40;46.20;;;31.42;29.32;99948.06;10440391;27;96746;-90
2022/08/05 09:28:26;;;;;;;;;;;32.60;46.00;;;31.71;29.51;99939.38;10441971;27;96456;-91
2022/08/05 09:33:50;;;;;;;5.18;1.90;;;32.80;45.50;;;31.98;28.47;99932.94;10441980;27;96765;-90
2022/08/05 09:39:01;;;;;;;3.38;1.90;;;33.10;45.40;;;32.26;28.38;99921.69;10422075;27;96608;-89
2022/08/05 09:44:04;;;;;;;4.47;2.20;;;33.30;45.00;;;32.48;27.30;99924.38;10432641;27;96554;-90
2022/08/05 09:49:23;;;;;;;2.83;1.98;;;33.60;44.30;;;32.57;27.10;99911.44;10432763;27;97502;-90
2022/08/05 09:55:11;;;;;;;3.13;1.90;;;33.70;43.90;;;32.86;27.37;99908.06;10456995;27;96566;-90
2022/08/05 10:00:33;;;;;;;5.03;1.85;;;34.00;44.00;;;33.08;27.05;99895.31;10443124;27;96569;-91
2022/08/05 10:05:37;;;;;;;4.43;2.15;;;34.20;43.50;;;33.15;25.77;99898.38;10454806;27;96813;-88
2022/08/05 10:10:43;;;;;;;3.80;2.00;;;34.40;42.70;;;33.12;26.86;99894.31;10409925;27;96574;-89
2022/08/05 10:15:46;;;;;;;6.25;2.05;;;34.40;43.00;;;33.40;26.29;99892.03;10451223;27;96588;-90
2022/08/05 10:20:55;;;;;;;3.95;2.30;;;34.50;42.90;;;33.51;25.52;99879.53;10419267;27;96623;-90
2022/08/05 10:26:05;;;;;;;5.40;2.00;;;34.70;42.40;;;33.62;25.79;99879.16;10442039;27;96488;-90
2022/08/05 10:31:13;;;;;;;5.45;2.20;;;34.80;42.30;;;33.89;26.06;99872.41;10395481;28;96724;-90
2022/08/05 10:36:39;;;;;;;4.00;1.90;;;35.00;42.50;;;34.05;24.60;99856.97;10421279;27;96542;-90
2022/08/05 10:42:06;;;;;;;5.68;2.08;;;35.30;41.70;;;33.98;24.30;99864.94;10446286;27;96553;-91
2022/08/05 10:47:15;;;;;;;3.92;2.00;;;35.20;41.00;;;34.15;24.27;99859.34;10444843;27;97407;-91
2022/08/05 10:52:52;;;;;;;4.75;2.08;;;35.30;41.10;;;34.26;23.97;99855.06;10422153;27;96719;-92
2022/08/05 10:58:11;;;;;;;5.03;1.90;;;35.50;40.90;;;34.51;24.81;99846.97;10393687;28;96719;-91
2022/08/05 11:03:17;;;;;;;3.25;1.90;;;35.60;41.10;;;34.48;23.84;99839.34;10404348;27;96550;-89
2022/08/05 11:08:28;;;;;;;2.65;2.00;;;35.70;40.00;;;34.39;23.81;99835.81;10390780;27;96734;-92
2022/08/05 11:13:43;;;;;;;2.65;2.08;;;35.60;39.90;;;34.39;23.79;99830.31;10440763;27;96666;-92
2022/08/05 11:19:25;;;;;;;4.43;2.00;;;35.60;40.00;;;34.44;23.41;99830.13;10406515;27;96553;-91
2022/08/05 11:25:30;;;;;;;2.33;1.97;;;35.60;39.90;;;34.40;23.75;99823.66;10406110;28;96679;-91
2022/08/05 11:30:56;;;;;;;4.95;1.80;;;35.60;39.50;;;34.76;22.96;99823.84;10453136;27;96842;-92
2022/08/05 11:36:06;;;;;;;2.27;2.00;;;35.90;39.50;;;34.86;22.24;99822.63;10446178;27;96714;-94
2022/08/05 11:41:19;;;;;;;3.55;2.10;;;36.10;38.70;;;34.82;22.31;99818.94;10436047;27;97154;-94
2022/08/05 11:46:49;;;;;;;3.03;1.90;;;36.10;38.60;;;34.88;22.73;99825.84;10447613;27;97428;-90
2022/08/05 11:52:13;;;;;;;2.42;1.83;;;36.10;38.90;;;35.27;22.53;99819.00;10422036;27;96560;-90
2022/08/05 11:57:16;;;;;;;7.13;1.88;;;36.40;38.90;;;35.50;21.98;99821.34;10444139;27;96446;-91
2022/08/05 12:02:32;;;;;;;3.33;1.80;;;36.70;38.70;;;35.88;21.85;99819.06;10411613;27;96575;-90
2022/08/05 12:07:42;;;;;;;6.60;1.95;;;36.90;38.60;;;36.15;20.86;99816.72;10411917;27;96577;-88
2022/08/05 12:13:05;;;;;;;4.30;1.80;;;37.30;37.90;;;36.01;21.08;99808.00;10413750;27;96706;-89
2022/08/05 12:18:31;;;;;;;3.28;2.10;;;37.40;37.40;;;35.99;21.07;99807.53;10430739;27;96441;-87
2022/08/05 12:23:35;;;;;;;9.15;2.00;;;37.50;37.70;;;35.99;21.00;99797.31;10428002;27;96506;-90
2022/08/05 12:28:44;;;;;;;2.97;2.03;;;37.60;37.60;;;36.26;21.45;99800.47;10415480;27;96655;-89
2022/08/05 12:33:49;;;;;;;5.63;2.10;;;37.70;37.60;;;36.64;20.88;99794.47;10400908;27;96490;-88
2022/08/05 12:38:56;;;;;;;2.38;1.65;;;38.00;37.40;;;36.75;20.47;99783.72;10420770;27;96768;-87
2022/08/05 12:44:11;;;;;;;2.20;1.65;;;38.30;37.10;;;36.95;20.55;99789.06;10420473;27;96610;-87
2022/08/05 12:49:48;;;;;;;2.63;1.80;;;38.50;37.00;;;37.28;19.83;99785.16;10426330;27;97939;-87
2022/08/05 12:55:24;;;;;;;5.22;1.67;;;39.10;36.70;;;37.67;20.11;99785.38;10419180;27;96658;-82
2022/08/05 13:00:32;;;;;;;5.20;2.00;;;39.50;36.60;;;38.07;19.72;99789.84;10410153;27;96574;-82
2022/08/05 13:05:55;;;;;;;;;;;39.80;36.20;;;38.27;18.57;99781.22;10414727;27;98556;-82
2022/08/05 13:11:01;;;;;;;4.75;1.90;;;40.00;35.60;;;38.16;18.96;99765.50;10433973;27;96571;-81
2022/08/05 13:16:12;;;;;;;2.28;1.88;;;39.90;35.50;;;38.29;19.43;99756.69;10431829;27;96596;-82
2022/08/05 13:21:19;;;;;;;4.55;1.88;;;39.90;35.70;;;38.17;18.91;99744.91;10414698;27;98164;-81
2022/08/05 13:26:22;;;;;;;2.78;2.15;;;39.80;35.60;;;38.03;19.12;99740.66;10440965;27;96739;-81
2022/08/05 13:31:31;;;;;;;4.32;2.30;;;39.60;35.40;;;37.80;19.06;99739.72;10434441;27;98283;-81
2022/08/05 13:36:54;;;;;;;4.47;1.90;;;39.20;35.50;;;37.77;19.34;99734.88;10405010;27;97266;-82
2022/08/05 13:41:57;;;;;;;4.63;1.90;;;39.10;35.60;;;37.98;19.36;99718.75;10443598;27;98002;-81
2022/08/05 13:47:01;;;;;;;7.25;2.15;;;39.10;35.60;;;37.79;19.23;99721.47;10416495;27;98148;-82
2022/08/05 13:52:22;;;;;;;6.30;2.00;;;39.10;35.60;;;37.84;18.57;99721.22;10415665;27;96590;-81
2022/08/05 13:57:31;;;;;;;3.20;1.95;;;39.00;35.60;;;37.96;19.05;99720.28;10440129;27;96451;-81
2022/08/05 14:02:55;;;;;;;4.07;1.83;;;39.10;35.60;;;37.88;18.56;99712.97;10441875;27;96568;-81
2022/08/05 14:07:58;;;;;;;3.50;1.80;;;39.10;35.50;;;37.88;19.06;99705.47;10414354;27;96465;-82
2022/08/05 14:13:12;;;;;;;2.78;1.70;;;39.10;35.50;;;37.95;18.87;99699.25;10456142;27;97336;-83
2022/08/05 14:18:17;;;;;;;4.53;2.00;;;39.10;35.40;;;37.96;18.62;99698.09;10429661;27;98070;-81
2022/08/05 14:23:25;;;;;;;6.22;1.85;;;39.10;35.50;;;38.10;18.42;99690.09;10410313;28;96575;-85
2022/08/05 14:28:38;;;;;;;3.47;1.90;;;39.20;35.80;;;38.17;19.10;99692.19;10417182;27;96698;-85
2022/08/05 14:33:55;;;;;;;2.27;1.70;;;39.30;35.60;;;38.18;18.51;99688.25;10407180;27;96930;-84
2022/08/05 14:39:04;;;;;;;;;;;39.30;35.40;;;38.25;18.26;99696.72;10408825;27;96623;-86
2022/08/05 14:44:12;;;;;;;4.40;1.83;;;39.30;35.10;;;38.03;18.32;99690.75;10399285;27;96470;-86
2022/08/05 14:49:23;;;;;;;3.47;1.58;;;39.30;35.10;;;37.85;18.30;99681.25;10434237;27;96773;-86
2022/08/05 14:54:46;;;;;;;4.50;1.70;;;39.10;35.10;;;37.43;18.87;99676.31;10389706;27;96951;-86
2022/08/05 14:59:54;;;;;;;3.67;1.80;;;38.80;34.90;;;37.26;19.34;99671.13;10399725;27;96696;-86
2022/08/05 15:04:58;;;;;;;8.18;2.15;;;38.60;35.10;;;37.39;18.89;99664.34;10437614;27;97189;-85
2022/08/05 15:10:02;;;;;;;3.08;1.80;;;38.60;35.30;;;37.34;18.97;99661.00;10441821;27;96365;-84
2022/08/05 15:15:06;;;;;;;3.20;2.05;;;38.60;35.20;;;37.39;19.19;99660.78;10440965;27;96655;-84
2022/08/05 15:20:17;;;;;;;3.50;2.05;;;38.60;35.30;;;37.26;18.91;99664.78;10399189;27;96549;-85
2022/08/05 15:25:26;;;;;;;3.30;1.70;;;38.50;35.20;;;37.38;19.14;99659.16;10454709;27;96615;-85
2022/08/05 15:30:49;;;;;;;6.85;1.70;;;38.50;35.40;;;37.47;19.48;99655.03;10434049;27;97436;-85
2022/08/05 15:35:55;;;;;;;4.45;1.58;;;38.60;35.40;;;37.61;18.63;99642.66;10450161;27;96727;-85
2022/08/05 15:40:59;;;;;;;7.80;2.42;;;38.60;35.10;;;37.43;18.79;99637.53;10422067;27;98282;-84
2022/08/05 15:46:23;;;;;;;4.20;1.85;;;38.60;35.00;;;37.48;18.74;99645.53;10427838;27;96631;-82
2022/08/05 15:51:28;;;;;;;3.38;1.80;;;38.60;35.30;;;37.57;18.83;99636.22;10416478;27;97035;-83
2022/08/05 15:56:51;;;;;;;4.60;1.90;;;38.60;35.20;;;37.70;18.71;99640.47;10442207;27;97809;-86
2022/08/05 16:01:54;;;;;;;2.42;1.80;;;38.70;35.40;;;37.76;18.64;99644.56;10399992;27;96732;-81
2022/08/05 16:07:01;;;;;;;2.63;1.70;;;38.70;35.30;;;37.78;18.57;99631.94;10412932;27;96589;-83
2022/08/05 16:12:05;;;;;;;4.45;1.60;;;38.80;35.10;;;37.66;18.93;99643.16;10385911;27;96610;-82
2022/08/05 16:17:08;;;;;;;2.60;1.77;;;38.70;35.20;;;37.58;18.94;99648.91;10437038;27;97157;-83
2022/08/05 16:22:11;;;;;;;2.55;1.50;;;38.70;35.40;;;37.31;18.60;99651.47;10418618;27;96471;-82
2022/08/05 16:27:17;;;;;;;4.82;1.77;;;38.50;35.20;;;37.20;19.32;99650.41;10408094;27;96637;-83
2022/08/05 16:32:20;;;;;;;4.05;1.90;;;38.40;35.40;;;37.12;19.27;99635.56;10409575;27;96917;-80
2022/08/05 16:37:33;;;;;;;3.17;1.65;;;38.30;35.20;;;37.01;19.57;99642.00;10443504;27;96539;-79
2022/08/05 16:42:56;;;;;;;3.63;1.52;;;38.20;35.40;;;36.91;19.59;99644.19;10433560;27;96715;-80
2022/08/05 16:47:59;;;;;;;5.45;1.55;;;38.20;35.60;;;36.77;19.78;99641.03;10445374;27;96636;-80
2022/08/05 16:53:04;;;;;;;2.42;1.80;;;38.10;35.70;;;36.47;20.12;99634.28;10425360;27;96688;-79
2022/08/05 16:58:24;;;;;;;1.73;1.50;;;37.90;35.70;;;36.17;20.26;99634.66;10431446;27;96834;-81
2022/08/05 17:03:27;;;;;;;3.60;1.90;;;37.60;35.90;;;35.87;21.30;99637.75;10449852;27;96596;-82
2022/08/05 17:08:33;;;;;;;4.70;2.10;;;37.30;36.80;;;35.53;21.87;99633.56;10455511;27;97337;-81
2022/08/05 17:13:55;;;;;;;6.72;2.33;;;36.80;37.40;;;35.20;22.37;99636.44;10434109;27;96876;-85
2022/08/05 17:19:07;;;;;;;2.97;2.15;;;36.40;38.30;;;34.86;23.39;99645.97;10431098;27;96850;-81
2022/08/05 17:24:12;;;;;;;5.13;2.20;;;36.00;38.90;;;34.52;24.05;99650.75;10451921;27;98062;-81
2022/08/05 17:29:35;;;;;;;6.03;2.65;;;35.60;39.60;;;34.13;24.83;99654.84;10428227;27;97035;-81
2022/08/05 17:34:44;;;;;;;12.50;2.90;;;35.20;40.30;;;33.71;25.57;99657.59;10427873;27;96642;-81
2022/08/05 17:39:49;;;;;;;7.03;2.88;;;34.70;40.90;;;33.21;26.37;99660.28;10433691;27;96734;-81
2022/08/05 17:44:57;;;;;;;8.67;2.70;;;34.20;41.60;;;32.73;27.09;99653.16;10453162;27;96676;-81
2022/08/05 17:50:01;;;;;;;7.25;2.92;;;33.70;42.10;;;32.31;27.71;99669.41;10407894;27;96739;-80
2022/08/05 17:55:12;;;;;;;8.73;2.95;;;33.30;42.70;;;31.92;28.30;99675.91;10413722;27;96631;-80
2022/08/05 18:00:17;;;;;;;6.70;2.67;;;32.90;43.50;;;31.58;28.69;99674.69;10429016;27;97982;-80
2022/08/05 18:05:20;;;;;;;5.18;2.50;;;32.50;43.50;;;31.22;28.94;99679.56;10413520;27;96685;-88
2022/08/05 18:10:23;;;;;;;7.38;2.47;;;32.20;43.80;;;30.88;29.37;99678.28;10429338;27;96863;-86
2022/08/05 18:15:27;;;;;;;13.88;3.35;;;31.80;44.10;;;30.59;29.67;99681.53;10418101;27;96917;-87
2022/08/05 18:20:36;;;;;;;21.73;3.80;;;31.50;44.40;;;30.30;30.58;99676.47;10446939;27;96612;-93
2022/08/05 18:25:40;;;;;;;18.05;4.07;;;31.20;44.80;;;30.00;31.34;99673.31;10418197;27;98127;-86
2022/08/05 18:30:48;;;;;;;12.45;4.65;;;31.00;45.30;;;29.75;31.32;99693.06;10402222;27;97747;-86
2022/08/05 18:35:52;;;;;;;12.35;6.05;;;30.70;45.50;;;29.45;31.96;99687.09;10427833;27;97243;-85
2022/08/05 18:41:07;;;;;;;13.77;6.68;;;30.40;45.80;;;29.22;31.13;99688.94;10433076;27;96639;-88
2022/08/05 18:46:30;;;;;;;11.32;5.88;;;30.20;45.60;;;29.09;31.27;99697.09;10468867;27;96631;-89
2022/08/05 18:57:12;;;;;;;14.65;4.60;;;29.80;45.90;;;28.70;32.36;99701.06;10473586;27;98149;-88
2022/08/05 19:02:18;;;;;;;11.05;4.90;;;29.70;46.10;;;28.53;32.92;99704.34;10472542;27;96637;-87
2022/08/05 19:07:31;;;;;;;5.75;3.78;;;29.50;46.60;;;28.36;33.30;99702.16;10467955;27;96511;-88
2022/08/05 19:12:48;;;;;;;6.43;3.70;;;29.30;46.70;;;28.21;33.85;99716.03;10478276;27;96574;-88
2022/08/05 19:17:56;;;;;;;6.75;3.63;;;29.20;47.30;;;28.03;34.64;99725.88;10461387;27;98085;-92
2022/08/05 19:23:11;;;;;;;5.20;3.08;;;29.00;47.80;;;27.80;35.49;99733.00;10447813;27;96385;-90
2022/08/05 19:28:36;;;;;;;3.28;2.85;;;28.80;48.40;;;27.61;35.01;99723.94;10485259;27;96627;-89
2022/08/05 19:33:43;;;;;;;4.45;3.10;;;28.60;48.60;;;27.54;35.61;99726.22;10460631;27;96884;-90
2022/08/05 19:38:58;;;;;;;5.47;3.20;;;28.50;48.80;;;27.42;35.71;99726.63;10452427;27;97371;-85
2022/08/05 19:44:06;;;;;;;4.82;3.60;;;28.40;48.90;;;27.29;36.12;99730.88;10439411;27;96930;-86
2022/08/05 19:49:15;;;;;;;11.07;6.50;;;28.20;49.30;;;27.15;36.22;99727.19;10443012;27;96749;-85
2022/08/05 19:54:19;;;;;;;13.35;6.20;;;28.10;49.40;;;27.01;36.64;99729.75;10403126;27;96605;-90
2022/08/05 19:59:32;;;;;;;9.73;5.50;;;28.00;49.40;;;26.86;37.03;99727.16;10413971;27;96796;-88
2022/08/05 20:04:55;;;;;;;8.05;4.95;;;27.90;49.70;;;26.78;36.62;99725.06;10424943;27;96833;-92
2022/08/05 20:10:03;;;;;;;9.15;4.85;;;27.80;49.90;;;26.65;37.03;99719.19;10434173;27;97398;-86
2022/08/05 20:15:17;;;;;;;7.03;4.10;;;27.70;50.20;;;26.56;36.92;99731.78;10408449;27;96790;-88
2022/08/05 20:20:45;;;;;;;6.35;3.50;;;27.50;50.30;;;26.45;37.54;99740.31;10421251;27;98515;-90
2022/08/05 20:25:48;;;;;;;6.22;3.65;;;27.40;50.60;;;26.33;37.84;99738.75;10442792;27;97446;-90
2022/08/05 20:30:54;;;;;;;8.52;5.45;;;27.30;50.80;;;26.27;37.92;99739.03;10430475;27;96477;-82
2022/08/05 20:35:57;;;;;;;6.60;4.28;;;27.30;51.00;;;26.24;38.02;99737.72;10432194;27;98759;-80
2022/08/05 20:41:00;;;;;;;4.20;3.00;;;27.20;51.00;;;26.18;38.33;99740.75;10424171;27;96790;-80
2022/08/05 20:46:11;;;;;;;4.38;2.97;;;27.20;51.10;;;26.07;38.79;99737.28;10407763;27;97318;-80
2022/08/05 20:51:26;;;;;;;6.72;2.80;;;27.10;51.40;;;25.95;39.13;99751.22;10418699;27;96711;-80
2022/08/05 20:56:29;;;;;;;4.18;2.72;;;27.00;51.70;;;25.81;39.43;99751.03;10411677;27;98333;-80
2022/08/05 21:01:43;;;;;;;6.32;2.63;;;26.80;51.90;;;25.70;39.84;99763.00;10445419;27;96528;-80
2022/08/05 21:06:47;;;;;;;4.07;2.28;;;26.70;52.30;;;25.59;40.27;99766.84;10413578;27;96686;-80
2022/08/05 21:11:51;;;;;;;2.60;2.10;;;26.60;52.60;;;25.46;40.15;99762.81;10447842;27;96714;-80
2022/08/05 21:17:12;;;;;;;4.45;2.38;;;26.50;52.50;;;25.36;40.40;99762.84;10402223;27;99804;-80
2022/08/05 21:22:16;;;;;;;3.25;2.60;;;26.40;52.90;;;25.25;40.70;99762.06;10413110;27;97690;-80
2022/08/05 21:27:25;;;;;;;5.25;2.47;;;26.30;53.10;;;25.13;41.18;99775.13;10424331;27;98637;-80
2022/08/05 21:32:29;;;;;;;4.65;2.20;;;26.10;53.60;;;25.02;41.76;99784.34;10449108;27;98394;-84
2022/08/05 21:37:32;;;;;;;7.35;2.33;;;26.00;53.90;;;24.90;41.78;99771.03;10412276;27;97273;-88
2022/08/05 21:42:42;;;;;;;7.60;2.80;;;25.90;54.00;;;24.82;41.81;99775.09;10414835;27;96667;-88